Metar Aviation Weather Data EGCK Caernarfon

10°C Temp
8°C Dewpoint
88% Humidity
Temperature
27 KM/H
17 MPH
15 KTS
170°
Due South

Wind Speed
Light Rain
Showers
Pressure 996 (hPa) - 29.41 (in)
Visibility 6.2 (mi) - 10 (km)

Current Conditions
EGCK
Caernarfon
Metar :EGCK 181450Z 17015KT 9999 -RA FEW016 OVC041 10/08 Q0996
Tue 18th December 15:50 pm

Caernarfon
  Metar Aviation API Data Provided by https://www.checkwx.com/ PHP scripts by weather34.com ©2018